sensor_id;sensor_type;location;lat;lon;timestamp;temperature;humidity
50955;DHT22;36966;48.064;-0.792;2023-12-20T00:00:01;16.10;53.70
50955;DHT22;36966;48.064;-0.792;2023-12-20T00:02:22;16.10;53.70
50955;DHT22;36966;48.064;-0.792;2023-12-20T00:04:41;16.10;53.70
50955;DHT22;36966;48.064;-0.792;2023-12-20T00:07:00;16.10;53.60
50955;DHT22;36966;48.064;-0.792;2023-12-20T00:09:20;16.10;53.60
50955;DHT22;36966;48.064;-0.792;2023-12-20T00:11:39;16.10;53.60
50955;DHT22;36966;48.064;-0.792;2023-12-20T00:14:00;16.10;53.60
50955;DHT22;36966;48.064;-0.792;2023-12-20T00:16:20;16.10;53.60
50955;DHT22;36966;48.064;-0.792;2023-12-20T00:18:39;16.10;53.60
50955;DHT22;36966;48.064;-0.792;2023-12-20T00:20:58;16.10;53.50
50955;DHT22;36966;48.064;-0.792;2023-12-20T00:23:17;16.10;53.50
50955;DHT22;36966;48.064;-0.792;2023-12-20T00:25:37;16.10;53.50
50955;DHT22;36966;48.064;-0.792;2023-12-20T00:27:56;16.10;53.40
50955;DHT22;36966;48.064;-0.792;2023-12-20T00:30:16;16.10;53.40
50955;DHT22;36966;48.064;-0.792;2023-12-20T00:32:36;16.10;53.40
50955;DHT22;36966;48.064;-0.792;2023-12-20T00:34:55;16.10;53.40
50955;DHT22;36966;48.064;-0.792;2023-12-20T00:37:14;16.10;53.40
50955;DHT22;36966;48.064;-0.792;2023-12-20T00:39:34;16.10;53.30
50955;DHT22;36966;48.064;-0.792;2023-12-20T00:41:53;16.10;53.30
50955;DHT22;36966;48.064;-0.792;2023-12-20T00:44:12;16.00;53.30
50955;DHT22;36966;48.064;-0.792;2023-12-20T00:46:32;16.00;53.30
50955;DHT22;36966;48.064;-0.792;2023-12-20T00:48:51;16.00;53.20
50955;DHT22;36966;48.064;-0.792;2023-12-20T00:51:10;16.00;53.30
50955;DHT22;36966;48.064;-0.792;2023-12-20T00:53:29;16.10;53.20
50955;DHT22;36966;48.064;-0.792;2023-12-20T00:55:49;16.00;53.20
50955;DHT22;36966;48.064;-0.792;2023-12-20T00:58:09;16.00;53.20
50955;DHT22;36966;48.064;-0.792;2023-12-20T01:00:29;16.00;53.20
50955;DHT22;36966;48.064;-0.792;2023-12-20T01:02:48;16.00;53.10
50955;DHT22;36966;48.064;-0.792;2023-12-20T01:05:10;16.00;53.10
50955;DHT22;36966;48.064;-0.792;2023-12-20T01:07:29;16.00;53.10
50955;DHT22;36966;48.064;-0.792;2023-12-20T01:09:49;16.00;53.10
50955;DHT22;36966;48.064;-0.792;2023-12-20T01:12:08;16.00;53.10
50955;DHT22;36966;48.064;-0.792;2023-12-20T01:14:27;16.00;53.10
50955;DHT22;36966;48.064;-0.792;2023-12-20T01:16:46;16.00;53.00
50955;DHT22;36966;48.064;-0.792;2023-12-20T01:19:05;16.00;53.00
50955;DHT22;36966;48.064;-0.792;2023-12-20T01:21:25;16.00;53.00
50955;DHT22;36966;48.064;-0.792;2023-12-20T01:23:45;16.00;53.00
50955;DHT22;36966;48.064;-0.792;2023-12-20T01:26:04;16.00;53.00
50955;DHT22;36966;48.064;-0.792;2023-12-20T01:28:24;16.00;52.90
50955;DHT22;36966;48.064;-0.792;2023-12-20T01:30:44;16.00;52.90
50955;DHT22;36966;48.064;-0.792;2023-12-20T01:33:03;16.00;52.90
50955;DHT22;36966;48.064;-0.792;2023-12-20T01:35:30;16.00;52.90
50955;DHT22;36966;48.064;-0.792;2023-12-20T01:37:49;16.00;52.90
50955;DHT22;36966;48.064;-0.792;2023-12-20T01:40:09;16.00;52.90
50955;DHT22;36966;48.064;-0.792;2023-12-20T01:42:28;16.00;52.80
50955;DHT22;36966;48.064;-0.792;2023-12-20T01:44:48;16.00;52.80
50955;DHT22;36966;48.064;-0.792;2023-12-20T01:47:08;16.00;52.80
50955;DHT22;36966;48.064;-0.792;2023-12-20T01:49:27;16.00;52.80
50955;DHT22;36966;48.064;-0.792;2023-12-20T01:51:47;16.00;52.80
50955;DHT22;36966;48.064;-0.792;2023-12-20T01:54:07;16.00;52.70
50955;DHT22;36966;48.064;-0.792;2023-12-20T01:56:26;16.00;52.70
50955;DHT22;36966;48.064;-0.792;2023-12-20T01:58:47;16.00;52.70
50955;DHT22;36966;48.064;-0.792;2023-12-20T02:01:07;16.00;52.70
50955;DHT22;36966;48.064;-0.792;2023-12-20T02:03:27;16.00;52.70
50955;DHT22;36966;48.064;-0.792;2023-12-20T02:05:46;16.00;52.70
50955;DHT22;36966;48.064;-0.792;2023-12-20T02:08:06;15.90;52.60
50955;DHT22;36966;48.064;-0.792;2023-12-20T02:10:25;15.90;52.60
50955;DHT22;36966;48.064;-0.792;2023-12-20T02:12:44;15.90;52.60
50955;DHT22;36966;48.064;-0.792;2023-12-20T02:15:04;16.00;52.60
50955;DHT22;36966;48.064;-0.792;2023-12-20T02:17:23;16.00;52.60
50955;DHT22;36966;48.064;-0.792;2023-12-20T02:19:43;15.90;52.60
50955;DHT22;36966;48.064;-0.792;2023-12-20T02:22:06;16.00;52.60
50955;DHT22;36966;48.064;-0.792;2023-12-20T02:24:26;16.00;52.60
50955;DHT22;36966;48.064;-0.792;2023-12-20T02:26:45;15.90;52.60
50955;DHT22;36966;48.064;-0.792;2023-12-20T02:29:05;16.00;52.50
50955;DHT22;36966;48.064;-0.792;2023-12-20T02:31:24;16.00;52.50
50955;DHT22;36966;48.064;-0.792;2023-12-20T02:33:43;15.90;52.50
50955;DHT22;36966;48.064;-0.792;2023-12-20T02:36:04;15.90;52.50
50955;DHT22;36966;48.064;-0.792;2023-12-20T02:38:23;16.00;52.50
50955;DHT22;36966;48.064;-0.792;2023-12-20T02:40:43;15.90;52.50
50955;DHT22;36966;48.064;-0.792;2023-12-20T02:43:02;15.90;52.50
50955;DHT22;36966;48.064;-0.792;2023-12-20T02:45:21;15.90;52.50
50955;DHT22;36966;48.064;-0.792;2023-12-20T02:47:40;15.90;52.50
50955;DHT22;36966;48.064;-0.792;2023-12-20T02:50:00;15.90;52.40
50955;DHT22;36966;48.064;-0.792;2023-12-20T02:52:19;15.90;52.40
50955;DHT22;36966;48.064;-0.792;2023-12-20T02:54:38;15.90;52.40
50955;DHT22;36966;48.064;-0.792;2023-12-20T02:56:58;15.90;52.40
50955;DHT22;36966;48.064;-0.792;2023-12-20T02:59:17;15.90;52.40
50955;DHT22;36966;48.064;-0.792;2023-12-20T03:01:43;15.90;52.40
50955;DHT22;36966;48.064;-0.792;2023-12-20T03:04:03;15.90;52.40
50955;DHT22;36966;48.064;-0.792;2023-12-20T03:06:22;15.90;52.40
50955;DHT22;36966;48.064;-0.792;2023-12-20T03:08:41;15.90;52.40
50955;DHT22;36966;48.064;-0.792;2023-12-20T03:11:01;15.90;52.40
50955;DHT22;36966;48.064;-0.792;2023-12-20T03:13:20;15.90;52.40
50955;DHT22;36966;48.064;-0.792;2023-12-20T03:15:47;15.90;52.40
50955;DHT22;36966;48.064;-0.792;2023-12-20T03:18:06;15.90;52.40
50955;DHT22;36966;48.064;-0.792;2023-12-20T03:20:25;15.90;52.40
50955;DHT22;36966;48.064;-0.792;2023-12-20T03:22:45;15.90;52.40
50955;DHT22;36966;48.064;-0.792;2023-12-20T03:25:04;15.90;52.40
50955;DHT22;36966;48.064;-0.792;2023-12-20T03:27:24;15.90;52.40
50955;DHT22;36966;48.064;-0.792;2023-12-20T03:29:45;15.90;52.40
50955;DHT22;36966;48.064;-0.792;2023-12-20T03:32:05;15.90;52.50
50955;DHT22;36966;48.064;-0.792;2023-12-20T03:34:24;15.90;52.50
50955;DHT22;36966;48.064;-0.792;2023-12-20T03:36:44;15.90;52.40
50955;DHT22;36966;48.064;-0.792;2023-12-20T03:39:03;15.90;52.50
50955;DHT22;36966;48.064;-0.792;2023-12-20T03:41:22;15.90;52.50
50955;DHT22;36966;48.064;-0.792;2023-12-20T03:43:42;15.90;52.40
50955;DHT22;36966;48.064;-0.792;2023-12-20T03:46:02;15.90;52.50
50955;DHT22;36966;48.064;-0.792;2023-12-20T03:48:22;15.90;52.40
50955;DHT22;36966;48.064;-0.792;2023-12-20T03:50:41;15.90;52.50
50955;DHT22;36966;48.064;-0.792;2023-12-20T03:53:01;15.90;52.50
50955;DHT22;36966;48.064;-0.792;2023-12-20T03:55:20;15.90;52.50
50955;DHT22;36966;48.064;-0.792;2023-12-20T03:57:39;15.90;52.50
50955;DHT22;36966;48.064;-0.792;2023-12-20T03:59:58;15.90;52.50
50955;DHT22;36966;48.064;-0.792;2023-12-20T04:02:18;15.90;52.50
50955;DHT22;36966;48.064;-0.792;2023-12-20T04:04:37;15.90;52.50
50955;DHT22;36966;48.064;-0.792;2023-12-20T04:06:57;15.90;52.50
50955;DHT22;36966;48.064;-0.792;2023-12-20T04:09:16;15.90;52.40
50955;DHT22;36966;48.064;-0.792;2023-12-20T04:11:36;15.90;52.40
50955;DHT22;36966;48.064;-0.792;2023-12-20T04:13:55;15.90;52.40
50955;DHT22;36966;48.064;-0.792;2023-12-20T04:16:15;15.90;52.50
50955;DHT22;36966;48.064;-0.792;2023-12-20T04:18:34;15.90;52.40
50955;DHT22;36966;48.064;-0.792;2023-12-20T04:20:53;15.90;52.50
50955;DHT22;36966;48.064;-0.792;2023-12-20T04:23:12;15.90;52.40
50955;DHT22;36966;48.064;-0.792;2023-12-20T04:25:31;15.90;52.50
50955;DHT22;36966;48.064;-0.792;2023-12-20T04:27:50;15.90;52.40
50955;DHT22;36966;48.064;-0.792;2023-12-20T04:30:10;15.90;52.40
50955;DHT22;36966;48.064;-0.792;2023-12-20T04:32:29;15.90;52.50
50955;DHT22;36966;48.064;-0.792;2023-12-20T04:34:49;15.90;52.40
50955;DHT22;36966;48.064;-0.792;2023-12-20T04:37:08;15.90;52.40
50955;DHT22;36966;48.064;-0.792;2023-12-20T04:39:28;15.80;52.40
50955;DHT22;36966;48.064;-0.792;2023-12-20T04:41:47;15.90;52.40
50955;DHT22;36966;48.064;-0.792;2023-12-20T04:44:06;15.80;52.40
50955;DHT22;36966;48.064;-0.792;2023-12-20T04:46:26;15.90;52.40
50955;DHT22;36966;48.064;-0.792;2023-12-20T04:48:45;15.80;52.40
50955;DHT22;36966;48.064;-0.792;2023-12-20T04:51:04;15.90;52.40
50955;DHT22;36966;48.064;-0.792;2023-12-20T04:53:25;16.00;56.10
50955;DHT22;36966;48.064;-0.792;2023-12-20T04:55:45;16.10;56.00
50955;DHT22;36966;48.064;-0.792;2023-12-20T04:58:04;16.10;55.40
50955;DHT22;36966;48.064;-0.792;2023-12-20T05:00:23;16.00;54.50
50955;DHT22;36966;48.064;-0.792;2023-12-20T05:02:42;16.00;53.90
50955;DHT22;36966;48.064;-0.792;2023-12-20T05:05:02;15.90;53.60
50955;DHT22;36966;48.064;-0.792;2023-12-20T05:07:21;15.90;53.40
50955;DHT22;36966;48.064;-0.792;2023-12-20T05:09:40;15.80;53.20
50955;DHT22;36966;48.064;-0.792;2023-12-20T05:12:00;15.90;53.00
50955;DHT22;36966;48.064;-0.792;2023-12-20T05:14:20;15.80;52.90
50955;DHT22;36966;48.064;-0.792;2023-12-20T05:16:39;15.90;52.80
50955;DHT22;36966;48.064;-0.792;2023-12-20T05:18:58;15.80;52.80
50955;DHT22;36966;48.064;-0.792;2023-12-20T05:21:19;15.80;52.70
50955;DHT22;36966;48.064;-0.792;2023-12-20T05:23:38;15.80;52.70
50955;DHT22;36966;48.064;-0.792;2023-12-20T05:26:00;15.70;52.70
50955;DHT22;36966;48.064;-0.792;2023-12-20T05:28:20;15.80;52.70
50955;DHT22;36966;48.064;-0.792;2023-12-20T05:30:39;15.80;52.60
50955;DHT22;36966;48.064;-0.792;2023-12-20T05:32:58;15.80;52.60
50955;DHT22;36966;48.064;-0.792;2023-12-20T05:35:17;15.80;52.60
50955;DHT22;36966;48.064;-0.792;2023-12-20T05:37:38;15.80;52.60
50955;DHT22;36966;48.064;-0.792;2023-12-20T05:39:57;15.80;52.60
50955;DHT22;36966;48.064;-0.792;2023-12-20T05:42:16;15.80;52.50
50955;DHT22;36966;48.064;-0.792;2023-12-20T05:44:36;15.80;52.50
50955;DHT22;36966;48.064;-0.792;2023-12-20T05:46:57;15.70;52.50
50955;DHT22;36966;48.064;-0.792;2023-12-20T05:49:17;15.80;52.50
50955;DHT22;36966;48.064;-0.792;2023-12-20T05:51:36;15.80;52.50
50955;DHT22;36966;48.064;-0.792;2023-12-20T05:53:56;15.80;52.40
50955;DHT22;36966;48.064;-0.792;2023-12-20T05:56:15;15.80;52.40
50955;DHT22;36966;48.064;-0.792;2023-12-20T05:58:34;15.80;52.40
50955;DHT22;36966;48.064;-0.792;2023-12-20T06:00:53;15.80;52.40
50955;DHT22;36966;48.064;-0.792;2023-12-20T06:03:13;15.80;52.50
50955;DHT22;36966;48.064;-0.792;2023-12-20T06:05:32;15.70;52.40
50955;DHT22;36966;48.064;-0.792;2023-12-20T06:07:51;15.70;52.40
50955;DHT22;36966;48.064;-0.792;2023-12-20T06:10:11;15.80;52.40
50955;DHT22;36966;48.064;-0.792;2023-12-20T06:12:30;15.70;52.40
50955;DHT22;36966;48.064;-0.792;2023-12-20T06:14:51;15.70;52.40
50955;DHT22;36966;48.064;-0.792;2023-12-20T06:17:10;15.70;52.40
50955;DHT22;36966;48.064;-0.792;2023-12-20T06:19:30;15.70;52.40
50955;DHT22;36966;48.064;-0.792;2023-12-20T06:21:49;15.70;52.40
50955;DHT22;36966;48.064;-0.792;2023-12-20T06:24:08;15.70;52.40
50955;DHT22;36966;48.064;-0.792;2023-12-20T06:26:28;15.70;52.30
50955;DHT22;36966;48.064;-0.792;2023-12-20T06:28:48;15.80;52.40
50955;DHT22;36966;48.064;-0.792;2023-12-20T06:31:07;15.70;52.40
50955;DHT22;36966;48.064;-0.792;2023-12-20T06:33:26;15.70;52.40
50955;DHT22;36966;48.064;-0.792;2023-12-20T06:35:46;15.70;52.40
50955;DHT22;36966;48.064;-0.792;2023-12-20T06:38:05;15.70;52.40
50955;DHT22;36966;48.064;-0.792;2023-12-20T06:40:24;15.70;52.30
50955;DHT22;36966;48.064;-0.792;2023-12-20T06:42:43;15.70;52.30
50955;DHT22;36966;48.064;-0.792;2023-12-20T06:45:03;15.70;52.30
50955;DHT22;36966;48.064;-0.792;2023-12-20T06:47:23;15.70;52.30
50955;DHT22;36966;48.064;-0.792;2023-12-20T06:49:42;15.70;52.30
50955;DHT22;36966;48.064;-0.792;2023-12-20T06:52:02;15.70;52.30
50955;DHT22;36966;48.064;-0.792;2023-12-20T06:54:21;15.70;52.30
50955;DHT22;36966;48.064;-0.792;2023-12-20T06:56:40;15.70;52.30
50955;DHT22;36966;48.064;-0.792;2023-12-20T06:59:00;15.70;52.30
50955;DHT22;36966;48.064;-0.792;2023-12-20T07:01:19;15.70;52.30
50955;DHT22;36966;48.064;-0.792;2023-12-20T07:03:38;15.70;52.20
50955;DHT22;36966;48.064;-0.792;2023-12-20T07:05:58;15.70;52.30
50955;DHT22;36966;48.064;-0.792;2023-12-20T07:08:17;15.70;52.30
50955;DHT22;36966;48.064;-0.792;2023-12-20T07:10:36;15.70;52.30
50955;DHT22;36966;48.064;-0.792;2023-12-20T07:12:56;15.70;52.30
50955;DHT22;36966;48.064;-0.792;2023-12-20T07:15:15;15.70;52.30
50955;DHT22;36966;48.064;-0.792;2023-12-20T07:17:34;15.70;52.30
50955;DHT22;36966;48.064;-0.792;2023-12-20T07:19:53;15.70;52.30
50955;DHT22;36966;48.064;-0.792;2023-12-20T07:22:13;15.70;52.20
50955;DHT22;36966;48.064;-0.792;2023-12-20T07:24:32;15.70;52.20
50955;DHT22;36966;48.064;-0.792;2023-12-20T07:26:52;15.70;52.30
50955;DHT22;36966;48.064;-0.792;2023-12-20T07:29:11;15.70;52.30
50955;DHT22;36966;48.064;-0.792;2023-12-20T07:31:30;15.70;52.20
50955;DHT22;36966;48.064;-0.792;2023-12-20T07:33:50;15.70;52.30
50955;DHT22;36966;48.064;-0.792;2023-12-20T07:36:09;15.70;52.20
50955;DHT22;36966;48.064;-0.792;2023-12-20T07:38:32;15.70;52.20
50955;DHT22;36966;48.064;-0.792;2023-12-20T07:40:51;15.70;52.30
50955;DHT22;36966;48.064;-0.792;2023-12-20T07:43:10;15.70;52.30
50955;DHT22;36966;48.064;-0.792;2023-12-20T07:45:29;15.70;52.30
50955;DHT22;36966;48.064;-0.792;2023-12-20T07:47:49;15.70;52.30
50955;DHT22;36966;48.064;-0.792;2023-12-20T07:50:09;15.70;52.30
50955;DHT22;36966;48.064;-0.792;2023-12-20T07:52:29;15.70;52.30
50955;DHT22;36966;48.064;-0.792;2023-12-20T07:54:48;15.70;52.30
50955;DHT22;36966;48.064;-0.792;2023-12-20T07:57:08;15.70;52.30
50955;DHT22;36966;48.064;-0.792;2023-12-20T07:59:27;15.70;52.30
50955;DHT22;36966;48.064;-0.792;2023-12-20T08:01:47;15.70;52.30
50955;DHT22;36966;48.064;-0.792;2023-12-20T08:04:06;15.80;56.20
50955;DHT22;36966;48.064;-0.792;2023-12-20T08:06:25;16.00;56.10
50955;DHT22;36966;48.064;-0.792;2023-12-20T08:08:44;16.10;55.00
50955;DHT22;36966;48.064;-0.792;2023-12-20T08:11:04;16.00;54.60
50955;DHT22;36966;48.064;-0.792;2023-12-20T08:13:23;15.90;54.00
50955;DHT22;36966;48.064;-0.792;2023-12-20T08:15:44;15.80;53.60
50955;DHT22;36966;48.064;-0.792;2023-12-20T08:18:04;15.80;53.40
50955;DHT22;36966;48.064;-0.792;2023-12-20T08:20:23;15.80;53.20
50955;DHT22;36966;48.064;-0.792;2023-12-20T08:22:43;15.80;53.10
50955;DHT22;36966;48.064;-0.792;2023-12-20T08:27:42;15.80;53.00
50955;DHT22;36966;48.064;-0.792;2023-12-20T08:30:01;15.80;52.90
50955;DHT22;36966;48.064;-0.792;2023-12-20T08:32:21;15.80;52.90
50955;DHT22;36966;48.064;-0.792;2023-12-20T08:34:40;15.80;52.80
50955;DHT22;36966;48.064;-0.792;2023-12-20T08:36:59;15.80;52.80
50955;DHT22;36966;48.064;-0.792;2023-12-20T08:39:19;15.80;52.70
50955;DHT22;36966;48.064;-0.792;2023-12-20T08:41:38;15.80;52.70
50955;DHT22;36966;48.064;-0.792;2023-12-20T08:43:57;15.80;52.70
50955;DHT22;36966;48.064;-0.792;2023-12-20T08:46:16;15.80;52.70
50955;DHT22;36966;48.064;-0.792;2023-12-20T08:48:38;15.80;52.70
50955;DHT22;36966;48.064;-0.792;2023-12-20T08:50:58;15.90;52.70
50955;DHT22;36966;48.064;-0.792;2023-12-20T08:53:18;15.80;52.70
50955;DHT22;36966;48.064;-0.792;2023-12-20T08:55:37;15.80;52.70
50955;DHT22;36966;48.064;-0.792;2023-12-20T08:57:56;15.80;52.70
50955;DHT22;36966;48.064;-0.792;2023-12-20T09:00:16;15.80;52.80
50955;DHT22;36966;48.064;-0.792;2023-12-20T09:02:35;15.80;52.70
50955;DHT22;36966;48.064;-0.792;2023-12-20T09:04:54;15.80;52.70
50955;DHT22;36966;48.064;-0.792;2023-12-20T09:07:24;15.90;52.70
50955;DHT22;36966;48.064;-0.792;2023-12-20T09:09:46;15.80;52.60
50955;DHT22;36966;48.064;-0.792;2023-12-20T09:12:06;15.90;52.60
50955;DHT22;36966;48.064;-0.792;2023-12-20T09:14:26;15.80;52.60
50955;DHT22;36966;48.064;-0.792;2023-12-20T09:16:45;15.90;52.60
50955;DHT22;36966;48.064;-0.792;2023-12-20T09:19:04;15.90;55.90
50955;DHT22;36966;48.064;-0.792;2023-12-20T09:21:23;16.00;56.30
50955;DHT22;36966;48.064;-0.792;2023-12-20T09:23:43;16.10;55.50
50955;DHT22;36966;48.064;-0.792;2023-12-20T09:26:02;16.10;55.30
50955;DHT22;36966;48.064;-0.792;2023-12-20T09:28:24;16.10;55.00
50955;DHT22;36966;48.064;-0.792;2023-12-20T09:30:43;16.10;55.10
50955;DHT22;36966;48.064;-0.792;2023-12-20T09:33:04;16.10;54.90
50955;DHT22;36966;48.064;-0.792;2023-12-20T09:35:24;16.10;54.90
50955;DHT22;36966;48.064;-0.792;2023-12-20T09:37:43;16.10;54.80
50955;DHT22;36966;48.064;-0.792;2023-12-20T09:40:03;16.10;54.90
50955;DHT22;36966;48.064;-0.792;2023-12-20T09:42:34;16.20;55.30
50955;DHT22;36966;48.064;-0.792;2023-12-20T09:44:56;16.10;55.30
50955;DHT22;36966;48.064;-0.792;2023-12-20T09:47:18;16.20;55.70
50955;DHT22;36966;48.064;-0.792;2023-12-20T09:49:38;16.20;56.00
50955;DHT22;36966;48.064;-0.792;2023-12-20T09:51:58;16.20;56.10
50955;DHT22;36966;48.064;-0.792;2023-12-20T09:54:18;16.30;57.40
50955;DHT22;36966;48.064;-0.792;2023-12-20T09:56:38;16.40;58.00
50955;DHT22;36966;48.064;-0.792;2023-12-20T09:58:58;16.40;58.70
50955;DHT22;36966;48.064;-0.792;2023-12-20T10:01:18;16.50;59.00
50955;DHT22;36966;48.064;-0.792;2023-12-20T10:03:38;16.60;58.00
50955;DHT22;36966;48.064;-0.792;2023-12-20T10:05:59;16.60;57.40
50955;DHT22;36966;48.064;-0.792;2023-12-20T10:08:20;16.60;57.30
50955;DHT22;36966;48.064;-0.792;2023-12-20T10:10:40;16.70;57.40
50955;DHT22;36966;48.064;-0.792;2023-12-20T10:13:06;16.70;57.20
50955;DHT22;36966;48.064;-0.792;2023-12-20T10:15:29;16.70;56.80
50955;DHT22;36966;48.064;-0.792;2023-12-20T10:17:48;16.70;56.30
50955;DHT22;36966;48.064;-0.792;2023-12-20T10:20:08;16.70;57.40
50955;DHT22;36966;48.064;-0.792;2023-12-20T10:22:28;16.70;56.60
50955;DHT22;36966;48.064;-0.792;2023-12-20T10:24:48;16.80;56.50
50955;DHT22;36966;48.064;-0.792;2023-12-20T10:27:07;16.80;56.30
50955;DHT22;36966;48.064;-0.792;2023-12-20T10:29:27;16.90;56.20
50955;DHT22;36966;48.064;-0.792;2023-12-20T10:31:46;16.90;56.00
50955;DHT22;36966;48.064;-0.792;2023-12-20T10:34:05;17.00;55.90
50955;DHT22;36966;48.064;-0.792;2023-12-20T10:36:25;17.00;56.20
50955;DHT22;36966;48.064;-0.792;2023-12-20T10:38:45;17.00;55.90
50955;DHT22;36966;48.064;-0.792;2023-12-20T10:41:05;17.00;55.70
50955;DHT22;36966;48.064;-0.792;2023-12-20T10:43:24;17.10;56.00
50955;DHT22;36966;48.064;-0.792;2023-12-20T10:45:45;17.20;55.70
50955;DHT22;36966;48.064;-0.792;2023-12-20T10:48:04;17.20;55.70
50955;DHT22;36966;48.064;-0.792;2023-12-20T10:50:24;17.20;55.60
50955;DHT22;36966;48.064;-0.792;2023-12-20T10:52:44;17.20;55.30
50955;DHT22;36966;48.064;-0.792;2023-12-20T10:55:03;17.30;55.20
50955;DHT22;36966;48.064;-0.792;2023-12-20T10:57:22;17.20;55.30
50955;DHT22;36966;48.064;-0.792;2023-12-20T10:59:42;17.20;54.90
50955;DHT22;36966;48.064;-0.792;2023-12-20T11:02:02;17.20;55.10
50955;DHT22;36966;48.064;-0.792;2023-12-20T11:04:25;17.30;55.00
50955;DHT22;36966;48.064;-0.792;2023-12-20T11:06:49;17.30;55.10
50955;DHT22;36966;48.064;-0.792;2023-12-20T11:09:24;17.40;55.30
50955;DHT22;36966;48.064;-0.792;2023-12-20T11:14:17;17.50;55.10
50955;DHT22;36966;48.064;-0.792;2023-12-20T11:16:38;17.50;55.10
50955;DHT22;36966;48.064;-0.792;2023-12-20T11:18:57;17.50;54.80
50955;DHT22;36966;48.064;-0.792;2023-12-20T11:21:16;17.40;54.30
50955;DHT22;36966;48.064;-0.792;2023-12-20T11:23:36;17.30;54.50
50955;DHT22;36966;48.064;-0.792;2023-12-20T11:25:56;17.40;54.50
50955;DHT22;36966;48.064;-0.792;2023-12-20T11:28:20;17.40;54.60
50955;DHT22;36966;48.064;-0.792;2023-12-20T11:30:46;17.50;54.30
50955;DHT22;36966;48.064;-0.792;2023-12-20T11:33:07;17.50;54.60
50955;DHT22;36966;48.064;-0.792;2023-12-20T11:35:27;17.50;54.30
50955;DHT22;36966;48.064;-0.792;2023-12-20T11:37:46;17.50;54.40
50955;DHT22;36966;48.064;-0.792;2023-12-20T11:40:07;17.50;54.60
50955;DHT22;36966;48.064;-0.792;2023-12-20T11:42:28;17.50;54.60
50955;DHT22;36966;48.064;-0.792;2023-12-20T11:44:47;17.50;54.60
50955;DHT22;36966;48.064;-0.792;2023-12-20T11:47:06;17.50;54.70
50955;DHT22;36966;48.064;-0.792;2023-12-20T11:49:26;17.50;54.70
50955;DHT22;36966;48.064;-0.792;2023-12-20T11:51:48;17.60;54.70
50955;DHT22;36966;48.064;-0.792;2023-12-20T11:54:07;17.60;54.70
50955;DHT22;36966;48.064;-0.792;2023-12-20T11:56:30;17.60;54.50
50955;DHT22;36966;48.064;-0.792;2023-12-20T11:58:49;17.70;54.60
50955;DHT22;36966;48.064;-0.792;2023-12-20T12:01:09;17.70;54.50
50955;DHT22;36966;48.064;-0.792;2023-12-20T12:03:28;17.70;54.50
50955;DHT22;36966;48.064;-0.792;2023-12-20T12:05:48;17.70;54.50
50955;DHT22;36966;48.064;-0.792;2023-12-20T12:08:07;17.70;54.50
50955;DHT22;36966;48.064;-0.792;2023-12-20T12:10:27;17.70;54.20
50955;DHT22;36966;48.064;-0.792;2023-12-20T12:12:46;17.70;54.30
50955;DHT22;36966;48.064;-0.792;2023-12-20T12:15:05;17.70;54.20
50955;DHT22;36966;48.064;-0.792;2023-12-20T12:17:25;17.70;54.10
50955;DHT22;36966;48.064;-0.792;2023-12-20T12:19:44;17.70;54.10
50955;DHT22;36966;48.064;-0.792;2023-12-20T12:22:07;17.60;54.00
50955;DHT22;36966;48.064;-0.792;2023-12-20T12:24:30;17.60;54.20
50955;DHT22;36966;48.064;-0.792;2023-12-20T12:26:49;17.60;54.10
50955;DHT22;36966;48.064;-0.792;2023-12-20T12:29:09;17.60;54.20
50955;DHT22;36966;48.064;-0.792;2023-12-20T12:31:28;17.50;54.40
50955;DHT22;36966;48.064;-0.792;2023-12-20T12:33:47;17.50;54.40
50955;DHT22;36966;48.064;-0.792;2023-12-20T12:36:07;17.50;54.50
50955;DHT22;36966;48.064;-0.792;2023-12-20T12:38:26;17.40;54.50
50955;DHT22;36966;48.064;-0.792;2023-12-20T12:40:46;17.40;54.50
50955;DHT22;36966;48.064;-0.792;2023-12-20T12:43:06;17.40;54.60
50955;DHT22;36966;48.064;-0.792;2023-12-20T12:45:25;17.30;54.60
50955;DHT22;36966;48.064;-0.792;2023-12-20T12:47:46;17.30;54.60
50955;DHT22;36966;48.064;-0.792;2023-12-20T12:50:05;17.30;54.70
50955;DHT22;36966;48.064;-0.792;2023-12-20T12:52:24;17.30;54.70
50955;DHT22;36966;48.064;-0.792;2023-12-20T12:54:45;17.30;54.60
50955;DHT22;36966;48.064;-0.792;2023-12-20T12:57:06;17.30;54.60
50955;DHT22;36966;48.064;-0.792;2023-12-20T12:59:25;17.30;54.50
50955;DHT22;36966;48.064;-0.792;2023-12-20T13:01:45;17.30;54.50
50955;DHT22;36966;48.064;-0.792;2023-12-20T13:04:04;17.30;54.50
50955;DHT22;36966;48.064;-0.792;2023-12-20T13:06:29;17.20;54.50
50955;DHT22;36966;48.064;-0.792;2023-12-20T13:08:49;17.30;54.50
50955;DHT22;36966;48.064;-0.792;2023-12-20T13:11:08;17.30;54.40
50955;DHT22;36966;48.064;-0.792;2023-12-20T13:13:28;17.20;54.40
50955;DHT22;36966;48.064;-0.792;2023-12-20T13:15:47;17.20;54.40
50955;DHT22;36966;48.064;-0.792;2023-12-20T13:18:12;17.20;54.40
50955;DHT22;36966;48.064;-0.792;2023-12-20T13:20:31;17.20;54.40
50955;DHT22;36966;48.064;-0.792;2023-12-20T13:22:51;17.20;54.40
50955;DHT22;36966;48.064;-0.792;2023-12-20T13:25:10;17.20;54.40
50955;DHT22;36966;48.064;-0.792;2023-12-20T13:27:29;17.20;54.40
50955;DHT22;36966;48.064;-0.792;2023-12-20T13:29:48;17.20;54.40
50955;DHT22;36966;48.064;-0.792;2023-12-20T13:32:08;17.10;54.40
50955;DHT22;36966;48.064;-0.792;2023-12-20T13:34:27;17.20;54.50
50955;DHT22;36966;48.064;-0.792;2023-12-20T13:36:46;17.10;54.50
50955;DHT22;36966;48.064;-0.792;2023-12-20T13:39:06;17.10;54.60
50955;DHT22;36966;48.064;-0.792;2023-12-20T13:41:26;17.10;54.60
50955;DHT22;36966;48.064;-0.792;2023-12-20T13:43:45;17.10;54.60
50955;DHT22;36966;48.064;-0.792;2023-12-20T13:46:06;17.10;54.60
50955;DHT22;36966;48.064;-0.792;2023-12-20T13:48:26;17.10;54.60
50955;DHT22;36966;48.064;-0.792;2023-12-20T13:50:45;17.10;54.60
50955;DHT22;36966;48.064;-0.792;2023-12-20T13:53:05;17.00;54.60
50955;DHT22;36966;48.064;-0.792;2023-12-20T13:55:24;17.00;54.50
50955;DHT22;36966;48.064;-0.792;2023-12-20T13:57:44;17.00;54.50
50955;DHT22;36966;48.064;-0.792;2023-12-20T14:00:04;16.90;54.70
50955;DHT22;36966;48.064;-0.792;2023-12-20T14:02:24;17.00;54.70
50955;DHT22;36966;48.064;-0.792;2023-12-20T14:04:43;17.00;54.70
50955;DHT22;36966;48.064;-0.792;2023-12-20T14:07:02;16.90;54.70
50955;DHT22;36966;48.064;-0.792;2023-12-20T14:09:21;16.90;54.60
50955;DHT22;36966;48.064;-0.792;2023-12-20T14:11:41;17.00;54.60
50955;DHT22;36966;48.064;-0.792;2023-12-20T14:14:02;17.00;54.60
50955;DHT22;36966;48.064;-0.792;2023-12-20T14:16:21;17.00;54.60
50955;DHT22;36966;48.064;-0.792;2023-12-20T14:18:41;16.90;54.60
50955;DHT22;36966;48.064;-0.792;2023-12-20T14:21:00;16.90;54.60
50955;DHT22;36966;48.064;-0.792;2023-12-20T14:23:19;16.90;54.60
50955;DHT22;36966;48.064;-0.792;2023-12-20T14:25:38;17.00;54.60
50955;DHT22;36966;48.064;-0.792;2023-12-20T14:27:58;17.00;54.60
50955;DHT22;36966;48.064;-0.792;2023-12-20T14:30:18;17.00;54.60
50955;DHT22;36966;48.064;-0.792;2023-12-20T14:32:38;16.90;54.60